createdAt,value
2023-04-17T00:00:15.484Z,16.90
2023-04-17T00:02:43.063Z,12.20
2023-04-17T00:05:10.755Z,14.27
2023-04-17T00:07:39.284Z,15.40
2023-04-17T00:10:08.688Z,10.17
2023-04-17T00:12:36.557Z,13.60
2023-04-17T00:15:04.967Z,10.90
2023-04-17T00:17:33.963Z,17.63
2023-04-17T00:20:01.552Z,16.33
2023-04-17T00:22:29.106Z,15.70
2023-04-17T00:24:56.582Z,12.93
2023-04-17T00:27:24.145Z,14.43
2023-04-17T00:29:51.593Z,14.10
2023-04-17T00:32:19.032Z,14.43
2023-04-17T00:34:47.824Z,13.93
2023-04-17T00:37:15.346Z,22.20
2023-04-17T00:39:42.899Z,12.93
2023-04-17T00:42:10.474Z,12.80
2023-04-17T00:44:38.125Z,11.33
2023-04-17T00:47:05.786Z,16.63
2023-04-17T00:49:36.995Z,15.07
2023-04-17T00:52:06.293Z,14.13
2023-04-17T00:54:34.226Z,11.43
2023-04-17T00:57:02.059Z,12.50
2023-04-17T00:59:30.364Z,11.20
2023-04-17T01:01:58.502Z,11.70
2023-04-17T01:04:26.718Z,10.73
2023-04-17T01:06:54.389Z,12.07
2023-04-17T01:09:23.230Z,15.57
2023-04-17T01:11:50.756Z,15.83
2023-04-17T01:14:18.232Z,13.20
2023-04-17T01:16:45.947Z,13.83
2023-04-17T01:19:15.949Z,12.23
2023-04-17T01:21:43.604Z,11.57
2023-04-17T01:24:12.499Z,13.53
2023-04-17T01:26:41.468Z,12.07
2023-04-17T01:29:09.045Z,14.83
2023-04-17T01:31:36.726Z,13.70
2023-04-17T01:34:04.905Z,15.60
2023-04-17T01:36:35.529Z,12.97
2023-04-17T01:39:03.937Z,13.03
2023-04-17T01:41:35.152Z,12.60
2023-04-17T01:44:02.928Z,17.37
2023-04-17T01:46:30.483Z,19.03
2023-04-17T01:48:58.183Z,9.80
2023-04-17T01:51:25.806Z,11.80
2023-04-17T01:53:53.406Z,12.03
2023-04-17T01:56:21.091Z,14.20
2023-04-17T01:58:51.589Z,11.57
2023-04-17T02:01:19.056Z,12.10
2023-04-17T02:03:46.844Z,13.80
2023-04-17T02:06:14.678Z,11.60
2023-04-17T02:08:45.085Z,16.90
2023-04-17T02:11:13.503Z,18.10
2023-04-17T02:13:42.661Z,21.30
2023-04-17T02:16:12.524Z,14.10
2023-04-17T02:18:42.230Z,11.20
2023-04-17T02:21:09.757Z,15.17
2023-04-17T02:23:37.280Z,16.70
2023-04-17T02:26:05.319Z,15.40
2023-04-17T02:28:32.815Z,20.27
2023-04-17T02:31:02.973Z,12.10
2023-04-17T02:33:32.069Z,11.47
2023-04-17T02:35:59.845Z,16.67
2023-04-17T02:38:37.617Z,13.10
2023-04-17T02:41:06.003Z,12.60
2023-04-17T02:43:34.533Z,14.33
2023-04-17T02:46:02.150Z,10.70
2023-04-17T02:48:29.635Z,10.73
2023-04-17T02:50:58.514Z,15.80
2023-04-17T02:53:26.252Z,15.53
2023-04-17T02:55:53.753Z,17.23
2023-04-17T02:58:23.898Z,16.50
2023-04-17T03:00:51.429Z,13.33
2023-04-17T03:03:20.495Z,13.17
2023-04-17T03:05:48.138Z,13.60
2023-04-17T03:08:16.999Z,11.63
2023-04-17T03:10:46.925Z,14.57
2023-04-17T03:13:14.409Z,15.00
2023-04-17T03:15:42.221Z,12.50
2023-04-17T03:18:09.667Z,10.03
2023-04-17T03:20:37.093Z,12.00
2023-04-17T03:23:04.680Z,15.50
2023-04-17T03:25:33.685Z,14.23
2023-04-17T03:28:02.486Z,13.93
2023-04-17T03:30:33.275Z,11.20
2023-04-17T03:33:04.896Z,10.33
2023-04-17T03:35:32.913Z,8.60
2023-04-17T03:38:04.526Z,11.30
2023-04-17T03:40:33.846Z,14.13
2023-04-17T03:43:02.535Z,14.37
2023-04-17T03:45:32.514Z,12.00
2023-04-17T03:48:00.231Z,16.73
2023-04-17T03:50:28.545Z,13.70
2023-04-17T03:52:57.739Z,16.97
2023-04-17T03:55:27.837Z,11.67
2023-04-17T03:57:57.035Z,11.60
2023-04-17T04:00:26.369Z,13.07
2023-04-17T04:02:59.887Z,12.33
2023-04-17T04:05:32.893Z,11.73
2023-04-17T04:08:00.664Z,12.37
2023-04-17T04:10:40.653Z,15.43
2023-04-17T04:13:11.124Z,13.83
2023-04-17T04:15:39.201Z,11.00
2023-04-17T04:18:07.593Z,13.00
2023-04-17T04:20:35.440Z,10.73
2023-04-17T04:23:14.000Z,13.80
2023-04-17T04:25:43.537Z,12.70
2023-04-17T04:28:24.279Z,13.10
2023-04-17T04:30:53.514Z,16.43
2023-04-17T04:33:22.758Z,15.70
2023-04-17T04:35:51.854Z,14.00
2023-04-17T04:38:19.982Z,18.27
2023-04-17T04:40:50.038Z,13.43
2023-04-17T04:43:18.558Z,14.60
2023-04-17T04:45:49.591Z,12.50
2023-04-17T04:48:17.676Z,13.20
2023-04-17T04:50:46.102Z,12.60
2023-04-17T04:53:13.842Z,11.67
2023-04-17T04:55:50.952Z,11.90
2023-04-17T04:58:18.921Z,16.97
2023-04-17T05:00:49.350Z,14.57
2023-04-17T05:03:26.715Z,13.00
2023-04-17T05:05:56.467Z,12.67
2023-04-17T05:08:28.192Z,16.07
2023-04-17T05:11:04.751Z,10.33
2023-04-17T05:13:32.289Z,13.03
2023-04-17T05:16:01.936Z,14.60
2023-04-17T05:18:31.040Z,11.80
2023-04-17T05:20:59.168Z,9.80
2023-04-17T05:23:29.931Z,13.23
2023-04-17T05:25:57.463Z,15.10
2023-04-17T05:28:27.125Z,12.17
2023-04-17T05:30:58.537Z,18.17
2023-04-17T05:33:34.143Z,12.83
2023-04-17T05:36:03.200Z,13.20
2023-04-17T05:38:34.629Z,13.00
2023-04-17T05:41:08.351Z,17.00
2023-04-17T05:43:36.128Z,9.13
2023-04-17T05:46:03.763Z,10.37
2023-04-17T05:48:31.359Z,15.80
2023-04-17T05:51:00.916Z,20.33
2023-04-17T05:53:30.305Z,12.93
2023-04-17T05:55:58.925Z,12.93
2023-04-17T05:58:26.553Z,17.00
2023-04-17T06:00:57.171Z,16.13
2023-04-17T06:03:26.809Z,12.77
2023-04-17T06:06:05.392Z,17.00
2023-04-17T06:08:33.350Z,21.00
2023-04-17T06:11:01.011Z,14.47
2023-04-17T06:13:28.590Z,13.67
2023-04-17T06:15:57.305Z,12.37
2023-04-17T06:18:24.779Z,14.20
2023-04-17T06:20:52.416Z,16.93
2023-04-17T06:23:22.454Z,22.13
2023-04-17T06:25:50.325Z,11.87
2023-04-17T06:28:19.214Z,13.00
2023-04-17T06:30:50.472Z,14.47
2023-04-17T06:33:19.152Z,19.23
2023-04-17T06:35:46.902Z,13.27
2023-04-17T06:38:27.063Z,13.33
2023-04-17T06:40:56.200Z,18.53
2023-04-17T06:43:23.727Z,15.27
2023-04-17T06:45:53.947Z,12.97
2023-04-17T06:48:21.514Z,16.80
2023-04-17T06:50:51.325Z,19.37
2023-04-17T06:53:19.347Z,12.10
2023-04-17T06:55:48.273Z,15.60
2023-04-17T06:58:15.837Z,11.97
2023-04-17T07:00:43.478Z,12.50
2023-04-17T07:03:11.213Z,16.97
2023-04-17T07:05:38.744Z,11.90
2023-04-17T07:08:06.884Z,13.63
2023-04-17T07:10:34.336Z,12.67
2023-04-17T07:13:03.435Z,14.03
2023-04-17T07:15:31.384Z,11.90
2023-04-17T07:17:59.632Z,15.20
2023-04-17T07:20:27.189Z,17.63
2023-04-17T07:22:55.417Z,13.07
2023-04-17T07:25:22.885Z,14.90
2023-04-17T07:27:50.435Z,15.30
2023-04-17T07:30:19.221Z,10.50
2023-04-17T07:32:47.248Z,12.27
2023-04-17T07:35:14.800Z,13.90
2023-04-17T07:37:42.339Z,12.40
2023-04-17T07:40:11.767Z,16.10
2023-04-17T07:42:39.222Z,10.63
2023-04-17T07:45:07.775Z,15.00
2023-04-17T07:47:36.694Z,11.63
2023-04-17T07:50:04.765Z,14.70
2023-04-17T07:52:32.223Z,13.50
2023-04-17T07:54:59.949Z,13.80
2023-04-17T07:57:27.435Z,14.20
2023-04-17T07:59:54.944Z,13.10
2023-04-17T08:02:22.970Z,14.67
2023-04-17T08:04:52.268Z,16.43
2023-04-17T08:07:20.160Z,13.37
2023-04-17T08:09:47.712Z,17.87
2023-04-17T08:12:15.138Z,16.13
2023-04-17T08:14:43.660Z,14.90
2023-04-17T08:17:11.433Z,13.07
2023-04-17T08:19:38.900Z,11.03
2023-04-17T08:22:09.056Z,10.47
2023-04-17T08:24:37.108Z,13.10
2023-04-17T08:27:05.140Z,14.43
2023-04-17T08:29:32.657Z,10.33
2023-04-17T08:32:13.408Z,18.13
2023-04-17T08:34:42.558Z,14.80
2023-04-17T08:37:11.544Z,16.17
2023-04-17T08:39:39.077Z,16.63
2023-04-17T08:42:10.027Z,14.47
2023-04-17T08:44:39.525Z,11.63
2023-04-17T08:47:09.076Z,10.23
2023-04-17T08:49:37.889Z,15.03
2023-04-17T08:52:07.981Z,14.43
2023-04-17T08:54:37.921Z,13.40
2023-04-17T08:57:06.087Z,10.57
2023-04-17T08:59:34.307Z,11.20
2023-04-17T09:02:03.549Z,13.70
2023-04-17T09:04:39.287Z,11.17
2023-04-17T09:07:07.641Z,16.10
2023-04-17T09:09:52.569Z,12.80
2023-04-17T09:12:21.228Z,11.00
2023-04-17T09:14:49.176Z,9.60
2023-04-17T09:17:18.357Z,10.13
2023-04-17T09:20:08.856Z,9.73
2023-04-17T09:22:37.613Z,9.30
2023-04-17T09:25:16.913Z,10.53
2023-04-17T09:27:44.479Z,10.83
2023-04-17T09:30:13.284Z,14.43
2023-04-17T09:32:41.398Z,7.50
2023-04-17T09:35:09.386Z,9.43
2023-04-17T09:37:50.692Z,10.07
2023-04-17T09:40:21.225Z,8.97
2023-04-17T09:42:56.058Z,9.70
2023-04-17T09:45:24.833Z,10.80
2023-04-17T09:47:55.778Z,11.00
2023-04-17T09:50:24.745Z,9.50
2023-04-17T09:52:53.044Z,11.60
2023-04-17T09:55:23.630Z,8.97
2023-04-17T09:57:52.622Z,12.83
2023-04-17T10:00:21.676Z,10.77
2023-04-17T10:02:51.998Z,9.80
2023-04-17T10:05:21.048Z,8.67
2023-04-17T10:07:49.336Z,6.90
2023-04-17T10:10:30.160Z,7.60
2023-04-17T10:13:01.008Z,11.97
2023-04-17T10:15:29.391Z,10.20
2023-04-17T10:18:21.055Z,8.47
2023-04-17T10:20:50.742Z,11.10
2023-04-17T10:23:30.101Z,8.40
2023-04-17T10:26:45.788Z,8.63
2023-04-17T10:29:14.744Z,9.90
2023-04-17T10:32:15.296Z,10.07
2023-04-17T10:34:43.993Z,9.73
2023-04-17T10:37:15.158Z,6.97
2023-04-17T10:39:54.255Z,7.00
2023-04-17T10:42:23.380Z,11.30
2023-04-17T10:44:56.540Z,9.30
2023-04-17T10:47:31.879Z,7.27
2023-04-17T10:50:02.158Z,7.80
2023-04-17T10:52:38.080Z,12.60
2023-04-17T10:55:07.736Z,10.47
2023-04-17T10:58:00.634Z,7.37
2023-04-17T11:00:33.321Z,11.47
2023-04-17T11:03:03.073Z,8.93
2023-04-17T11:05:32.117Z,10.33
2023-04-17T11:08:00.530Z,10.03
2023-04-17T11:10:28.167Z,10.40
2023-04-17T11:12:56.695Z,6.63
2023-04-17T11:15:33.912Z,9.27
2023-04-17T11:18:03.219Z,6.93
2023-04-17T11:20:33.268Z,7.13
2023-04-17T11:23:06.424Z,10.13
2023-04-17T11:25:35.127Z,7.03
2023-04-17T11:28:05.706Z,7.70
2023-04-17T11:30:37.025Z,9.63
2023-04-17T11:33:06.892Z,7.27
2023-04-17T11:35:36.450Z,8.40
2023-04-17T11:38:22.658Z,7.60
2023-04-17T11:40:52.398Z,6.70
2023-04-17T11:43:22.264Z,10.53
2023-04-17T11:45:53.335Z,6.30
2023-04-17T11:48:23.387Z,7.60
2023-04-17T11:50:54.870Z,7.67
2023-04-17T11:53:22.526Z,8.80
2023-04-17T11:56:10.361Z,9.17
2023-04-17T11:58:46.120Z,8.73
2023-04-17T12:04:20.681Z,10.27
2023-04-17T12:06:48.848Z,8.37
2023-04-17T12:09:21.106Z,9.60
2023-04-17T12:11:48.584Z,8.53
2023-04-17T12:14:16.034Z,9.03
2023-04-17T12:16:47.955Z,7.80
2023-04-17T12:19:16.886Z,9.30
2023-04-17T12:21:44.629Z,6.97
2023-04-17T12:24:12.342Z,10.17
2023-04-17T12:26:46.350Z,6.67
2023-04-17T12:29:14.430Z,9.87
2023-04-17T12:31:42.153Z,8.37
2023-04-17T12:34:11.524Z,12.70
2023-04-17T12:36:39.891Z,9.37
2023-04-17T12:39:07.928Z,7.90
2023-04-17T12:41:35.995Z,7.83
2023-04-17T12:44:03.681Z,12.73
2023-04-17T12:46:31.372Z,7.20
2023-04-17T12:48:59.294Z,5.97
2023-04-17T12:51:28.776Z,10.90
2023-04-17T12:53:56.988Z,7.23
2023-04-17T12:56:24.866Z,8.50
2023-04-17T12:58:52.406Z,9.40
2023-04-17T13:01:20.116Z,6.77
2023-04-17T13:03:47.807Z,10.23
2023-04-17T13:06:16.813Z,6.83
2023-04-17T13:08:45.963Z,7.73
2023-04-17T13:11:13.481Z,6.73
2023-04-17T13:13:40.929Z,14.00
2023-04-17T13:16:08.830Z,7.07
2023-04-17T13:18:37.537Z,9.30
2023-04-17T13:21:05.244Z,6.60
2023-04-17T13:23:32.732Z,6.53
2023-04-17T13:26:01.817Z,6.40
2023-04-17T13:28:29.290Z,9.73
2023-04-17T13:30:56.807Z,7.47
2023-04-17T13:33:24.351Z,7.50
2023-04-17T13:35:53.158Z,8.40
2023-04-17T13:38:20.701Z,6.70
2023-04-17T13:40:48.289Z,8.23
2023-04-17T13:43:17.145Z,10.70
2023-04-17T13:45:44.653Z,7.03
2023-04-17T13:48:12.386Z,6.90
2023-04-17T13:50:40.039Z,7.27
2023-04-17T13:53:10.052Z,6.50
2023-04-17T13:55:38.526Z,5.63
2023-04-17T13:58:06.075Z,5.77
2023-04-17T14:00:34.903Z,8.37
2023-04-17T14:03:02.815Z,6.27
2023-04-17T14:05:30.844Z,6.70
2023-04-17T14:07:58.462Z,6.33
2023-04-17T14:10:25.963Z,11.27
2023-04-17T14:12:53.500Z,6.60
2023-04-17T14:15:21.065Z,7.93
2023-04-17T14:17:50.352Z,6.37
2023-04-17T14:20:19.856Z,5.37
2023-04-17T14:22:47.893Z,6.03
2023-04-17T14:25:15.642Z,10.77
2023-04-17T14:27:43.201Z,8.33
2023-04-17T14:30:11.023Z,7.03
2023-04-17T14:32:39.440Z,8.53
2023-04-17T14:35:09.173Z,5.57
2023-04-17T14:37:36.928Z,7.30
2023-04-17T14:40:05.004Z,9.30
2023-04-17T14:42:38.059Z,4.93
2023-04-17T14:45:14.899Z,9.07
2023-04-17T14:47:43.855Z,9.03
2023-04-17T14:50:14.933Z,5.57
2023-04-17T14:52:42.486Z,8.27
2023-04-17T14:55:11.822Z,6.60
2023-04-17T14:57:40.055Z,7.53
2023-04-17T15:00:09.442Z,8.77
2023-04-17T15:02:39.418Z,5.97
2023-04-17T15:05:08.123Z,5.90
2023-04-17T15:07:36.977Z,7.17
2023-04-17T15:10:05.214Z,7.37
2023-04-17T15:12:32.698Z,9.77
2023-04-17T15:15:00.369Z,5.53
2023-04-17T15:17:27.838Z,5.60
2023-04-17T15:19:57.331Z,6.00
2023-04-17T15:22:26.922Z,5.83
2023-04-17T15:24:55.755Z,7.60
2023-04-17T15:27:23.225Z,10.80
2023-04-17T15:29:50.762Z,7.20
2023-04-17T15:32:18.276Z,7.60
2023-04-17T15:34:48.529Z,7.13
2023-04-17T15:37:16.090Z,9.73
2023-04-17T15:39:43.846Z,8.10
2023-04-17T15:42:12.683Z,6.67
2023-04-17T15:44:40.333Z,5.93
2023-04-17T15:47:07.856Z,5.17
2023-04-17T15:49:35.397Z,5.40
2023-04-17T15:52:02.955Z,6.90
2023-04-17T15:54:32.229Z,9.57
2023-04-17T15:56:59.919Z,8.50
2023-04-17T15:59:28.939Z,5.80
2023-04-17T16:01:56.589Z,9.53
2023-04-17T16:04:24.360Z,8.80
2023-04-17T16:06:52.196Z,5.23
2023-04-17T16:09:24.092Z,6.37
2023-04-17T16:11:51.661Z,12.10
2023-04-17T16:14:19.261Z,7.80
2023-04-17T16:16:48.209Z,6.83
2023-04-17T16:19:15.678Z,9.43
2023-04-17T16:21:43.228Z,9.40
2023-04-17T16:24:10.822Z,10.60
2023-04-17T16:26:38.519Z,11.20
2023-04-17T16:29:06.027Z,12.30
2023-04-17T16:31:33.753Z,10.10
2023-04-17T16:34:03.297Z,8.77
2023-04-17T16:36:32.808Z,10.87
2023-04-17T16:39:02.298Z,12.07
2023-04-17T16:41:31.042Z,7.90
2023-04-17T16:43:58.669Z,7.53
2023-04-17T16:46:35.520Z,8.80
2023-04-17T16:49:14.719Z,8.60
2023-04-17T16:51:42.507Z,8.27
2023-04-17T16:54:10.403Z,9.33
2023-04-17T16:56:38.010Z,10.43
2023-04-17T16:59:05.727Z,8.97
2023-04-17T17:01:33.356Z,12.70
2023-04-17T17:04:00.977Z,12.63
2023-04-17T17:06:30.057Z,10.30
2023-04-17T17:08:59.549Z,8.57
2023-04-17T17:11:27.062Z,9.80
2023-04-17T17:13:54.539Z,7.93
2023-04-17T17:16:22.147Z,8.60
2023-04-17T17:18:49.891Z,11.23
2023-04-17T17:21:17.469Z,8.77
2023-04-17T17:23:46.288Z,10.17
2023-04-17T17:26:13.718Z,7.80
2023-04-17T17:28:41.213Z,8.87
2023-04-17T17:31:09.254Z,7.77
2023-04-17T17:33:37.619Z,8.53
2023-04-17T17:36:05.574Z,8.90
2023-04-17T17:38:33.176Z,6.47
2023-04-17T17:41:02.077Z,7.73
2023-04-17T17:43:29.581Z,6.87
2023-04-17T17:45:57.132Z,6.47
2023-04-17T17:48:24.656Z,7.13
2023-04-17T17:50:54.483Z,10.17
2023-04-17T17:53:26.202Z,9.50
2023-04-17T17:55:55.916Z,11.60
2023-04-17T17:58:25.070Z,7.90
2023-04-17T18:00:52.590Z,5.57
2023-04-17T18:03:21.052Z,6.60
2023-04-17T18:05:48.779Z,10.23
2023-04-17T18:08:18.015Z,8.63
2023-04-17T18:10:45.630Z,6.93
2023-04-17T18:13:13.379Z,6.90
2023-04-17T18:15:42.305Z,8.33
2023-04-17T18:18:09.831Z,7.90
2023-04-17T18:20:38.737Z,5.60
2023-04-17T18:23:06.422Z,6.10
2023-04-17T18:25:35.423Z,5.07
2023-04-17T18:28:03.574Z,4.77
2023-04-17T18:30:31.186Z,6.70
2023-04-17T18:33:00.227Z,4.90
2023-04-17T18:35:27.853Z,9.83
2023-04-17T18:37:56.445Z,4.23
2023-04-17T18:40:24.287Z,5.00
2023-04-17T18:42:51.736Z,6.00
2023-04-17T18:45:19.452Z,5.37
2023-04-17T18:47:47.212Z,5.50
2023-04-17T18:50:16.377Z,5.30
2023-04-17T18:52:49.443Z,4.13
2023-04-17T18:55:18.580Z,5.17
2023-04-17T18:57:46.105Z,3.90
2023-04-17T19:00:14.175Z,6.07
2023-04-17T19:02:41.847Z,4.67
2023-04-17T19:05:10.309Z,4.23
2023-04-17T19:07:39.248Z,3.93
2023-04-17T19:10:07.819Z,3.80
2023-04-17T19:12:36.033Z,3.57
2023-04-17T19:15:03.616Z,3.60
2023-04-17T19:17:31.227Z,3.30
2023-04-17T19:19:58.789Z,6.23
2023-04-17T19:22:29.414Z,5.27
2023-04-17T19:24:58.491Z,4.37
2023-04-17T19:27:27.018Z,4.00
2023-04-17T19:29:55.068Z,3.30
2023-04-17T19:32:22.697Z,4.67
2023-04-17T19:34:50.215Z,2.80
2023-04-17T19:37:17.750Z,3.70
2023-04-17T19:39:45.315Z,4.20
2023-04-17T19:42:14.113Z,5.30
2023-04-17T19:44:41.617Z,5.80
2023-04-17T19:47:09.142Z,4.30
2023-04-17T19:49:36.797Z,3.70
2023-04-17T19:52:04.557Z,6.67
2023-04-17T19:54:32.085Z,4.60
2023-04-17T19:56:59.619Z,4.70
2023-04-17T19:59:28.529Z,4.30
2023-04-17T20:01:56.259Z,5.03
2023-04-17T20:04:24.001Z,4.93
2023-04-17T20:06:51.800Z,4.47
2023-04-17T20:09:19.710Z,3.83
2023-04-17T20:11:47.749Z,3.90
2023-04-17T20:14:15.695Z,4.27
2023-04-17T20:16:46.263Z,3.27
2023-04-17T20:19:14.464Z,6.13
2023-04-17T20:21:43.267Z,4.13
2023-04-17T20:24:10.823Z,3.73
2023-04-17T20:26:40.675Z,2.80
2023-04-17T20:29:09.188Z,4.60
2023-04-17T20:31:36.947Z,4.00
2023-04-17T20:34:05.861Z,3.20
2023-04-17T20:36:33.787Z,4.33
2023-04-17T20:39:01.298Z,3.83
2023-04-17T20:41:28.797Z,3.57
2023-04-17T20:43:59.696Z,3.40
2023-04-17T20:46:27.405Z,2.83
2023-04-17T20:48:55.334Z,3.73
2023-04-17T20:51:26.544Z,8.20
2023-04-17T20:53:55.744Z,4.20
2023-04-17T20:56:23.838Z,8.63
2023-04-17T20:58:51.520Z,4.00
2023-04-17T21:01:20.277Z,3.53
2023-04-17T21:03:48.287Z,2.73
2023-04-17T21:06:15.933Z,3.80
2023-04-17T21:08:44.776Z,3.47
2023-04-17T21:11:15.194Z,2.67
2023-04-17T21:13:42.910Z,4.00
2023-04-17T21:16:11.364Z,5.33
2023-04-17T21:18:39.105Z,3.10
2023-04-17T21:21:07.064Z,5.60
2023-04-17T21:23:34.592Z,3.90
2023-04-17T21:26:03.738Z,8.20
2023-04-17T21:28:31.238Z,4.27
2023-04-17T21:30:58.788Z,3.90
2023-04-17T21:33:26.452Z,4.77
2023-04-17T21:35:53.912Z,3.47
2023-04-17T21:38:21.619Z,3.33
2023-04-17T21:40:51.620Z,3.90
2023-04-17T21:43:20.626Z,3.63
2023-04-17T21:45:50.122Z,3.60
2023-04-17T21:48:17.822Z,4.10
2023-04-17T21:50:45.522Z,5.20
2023-04-17T21:53:13.065Z,3.87
2023-04-17T21:55:40.720Z,4.10
2023-04-17T21:58:08.631Z,5.63
2023-04-17T22:00:37.491Z,4.27
2023-04-17T22:03:05.185Z,4.80
2023-04-17T22:05:32.741Z,3.77
2023-04-17T22:08:01.258Z,5.20
2023-04-17T22:10:29.891Z,3.17
2023-04-17T22:12:57.653Z,3.60
2023-04-17T22:15:25.171Z,3.23
2023-04-17T22:17:54.077Z,4.33
2023-04-17T22:20:21.909Z,4.03
2023-04-17T22:22:49.483Z,5.63
2023-04-17T22:25:17.101Z,3.80
2023-04-17T22:27:44.552Z,4.73
2023-04-17T22:30:12.703Z,7.30
2023-04-17T22:32:40.358Z,4.40
2023-04-17T22:35:10.244Z,4.07
2023-04-17T22:37:37.845Z,5.07
2023-04-17T22:40:06.557Z,6.90
2023-04-17T22:42:34.128Z,4.90
2023-04-17T22:45:01.644Z,5.60
2023-04-17T22:47:29.136Z,3.50
2023-04-17T22:49:57.606Z,6.17
2023-04-17T22:52:26.683Z,6.77
2023-04-17T22:54:54.587Z,6.63
2023-04-17T22:57:22.059Z,4.80
2023-04-17T22:59:49.530Z,4.87
2023-04-17T23:02:17.191Z,5.40
2023-04-17T23:04:44.680Z,4.70
2023-04-17T23:07:12.154Z,5.73
2023-04-17T23:09:41.027Z,25.07
2023-04-17T23:12:08.659Z,6.77
2023-04-17T23:14:36.203Z,6.47
2023-04-17T23:17:03.660Z,5.90
2023-04-17T23:19:31.191Z,7.10
2023-04-17T23:21:59.679Z,5.83
2023-04-17T23:24:27.350Z,5.13
2023-04-17T23:26:56.247Z,5.67
2023-04-17T23:29:23.781Z,4.93
2023-04-17T23:31:51.258Z,4.77
2023-04-17T23:34:18.799Z,6.00
2023-04-17T23:36:46.402Z,4.70
2023-04-17T23:39:13.920Z,8.57
2023-04-17T23:41:42.742Z,4.63
2023-04-17T23:44:13.321Z,5.90
2023-04-17T23:46:41.011Z,5.70
2023-04-17T23:49:08.596Z,6.20
2023-04-17T23:51:36.169Z,5.40
2023-04-17T23:54:03.661Z,6.70
2023-04-17T23:56:31.251Z,9.20
2023-04-17T23:58:58.729Z,7.50
